SRD199 EGPK-EGPK
Flight info
| Callsign | SRD199 |
|---|---|
| Flight time | 0h 28m |
| Altitude | 1500 |
| Route | VFR |
| Aircraft | A189/L-SBDFGHIM1M3RYZ/LB1 |
Departure
| Time | 2026-05-08 15:58 |
|---|---|
| Airport | Glasgow Prestwick Airport (EGPK) |
Arrival
| Time | 2026-05-08 16:26 |
|---|---|
| Airport | Glasgow Prestwick Airport (EGPK) |
| Time | Latitude | Longitude | Altitude | Speed | Heading |
|---|---|---|---|---|---|
| 2026-05-08 15:52 | 55.50969 | -4.58296 | 56 ft | 0 kts | 98° |
| 2026-05-08 15:56 | 55.50969 | -4.58290 | 57 ft | 1 kts | 136° |
| 2026-05-08 15:56 | 55.50958 | -4.58274 | 63 ft | 1 kts | 269° |
| 2026-05-08 15:56 | 55.50963 | -4.58208 | 161 ft | 15 kts | 265° |
| 2026-05-08 15:56 | 55.50954 | -4.58303 | 309 ft | 51 kts | 262° |
| 2026-05-08 15:57 | 55.50859 | -4.59395 | 296 ft | 114 kts | 263° |
| 2026-05-08 15:57 | 55.50745 | -4.60909 | 389 ft | 135 kts | 263° |
| 2026-05-08 15:57 | 55.50632 | -4.62620 | 474 ft | 145 kts | 263° |
| 2026-05-08 15:57 | 55.50510 | -4.64148 | 587 ft | 150 kts | 262° |
| 2026-05-08 15:58 | 55.50191 | -4.65873 | 688 ft | 153 kts | 245° |
| 2026-05-08 15:58 | 55.49625 | -4.67446 | 775 ft | 150 kts | 239° |
| 2026-05-08 15:58 | 55.49052 | -4.68956 | 869 ft | 148 kts | 239° |
| 2026-05-08 15:58 | 55.48493 | -4.70465 | 969 ft | 147 kts | 239° |
| 2026-05-08 15:59 | 55.47939 | -4.71928 | 1070 ft | 147 kts | 239° |
| 2026-05-08 15:59 | 55.47365 | -4.73418 | 1174 ft | 148 kts | 239° |
| 2026-05-08 15:59 | 55.46789 | -4.74907 | 1225 ft | 147 kts | 237° |
| 2026-05-08 15:59 | 55.46181 | -4.76349 | 1095 ft | 149 kts | 232° |
| 2026-05-08 16:00 | 55.45525 | -4.77750 | 968 ft | 148 kts | 235° |
| 2026-05-08 16:00 | 55.44929 | -4.79118 | 933 ft | 147 kts | 236° |
| 2026-05-08 16:00 | 55.44324 | -4.80574 | 944 ft | 147 kts | 235° |
| 2026-05-08 16:00 | 55.43700 | -4.81994 | 946 ft | 149 kts | 235° |
| 2026-05-08 16:01 | 55.43057 | -4.83447 | 973 ft | 149 kts | 235° |
| 2026-05-08 16:01 | 55.42430 | -4.84882 | 991 ft | 149 kts | 236° |
| 2026-05-08 16:01 | 55.41811 | -4.86339 | 1003 ft | 148 kts | 239° |
| 2026-05-08 16:01 | 55.41311 | -4.87907 | 1030 ft | 144 kts | 248° |
| 2026-05-08 16:02 | 55.40916 | -4.89520 | 1010 ft | 143 kts | 250° |
| 2026-05-08 16:02 | 55.40529 | -4.91118 | 994 ft | 143 kts | 250° |
| 2026-05-08 16:02 | 55.40144 | -4.92725 | 974 ft | 143 kts | 250° |
| 2026-05-08 16:02 | 55.39766 | -4.94208 | 890 ft | 140 kts | 245° |
| 2026-05-08 16:03 | 55.39224 | -4.95596 | 696 ft | 140 kts | 230° |
| 2026-05-08 16:03 | 55.38543 | -4.96855 | 461 ft | 142 kts | 231° |
| 2026-05-08 16:03 | 55.37886 | -4.98106 | 443 ft | 140 kts | 231° |
| 2026-05-08 16:03 | 55.37249 | -4.99394 | 449 ft | 139 kts | 230° |
| 2026-05-08 16:04 | 55.36607 | -5.00632 | 461 ft | 137 kts | 240° |
| 2026-05-08 16:04 | 55.36346 | -5.02150 | 390 ft | 125 kts | 273° |
| 2026-05-08 16:04 | 55.36536 | -5.03568 | 294 ft | 116 kts | 289° |
| 2026-05-08 16:04 | 55.36755 | -5.04846 | 325 ft | 100 kts | 289° |
| 2026-05-08 16:05 | 55.36945 | -5.05907 | 312 ft | 85 kts | 289° |
| 2026-05-08 16:05 | 55.37111 | -5.06839 | 340 ft | 68 kts | 289° |
| 2026-05-08 16:05 | 55.37221 | -5.07546 | 266 ft | 54 kts | 289° |
| 2026-05-08 16:05 | 55.37293 | -5.08159 | 187 ft | 52 kts | 262° |
| 2026-05-08 16:06 | 55.37095 | -5.08705 | 187 ft | 54 kts | 230° |
| 2026-05-08 16:06 | 55.36801 | -5.09069 | 175 ft | 46 kts | 219° |
| 2026-05-08 16:06 | 55.36578 | -5.09288 | 167 ft | 25 kts | 217° |
| 2026-05-08 16:06 | 55.36482 | -5.09375 | 173 ft | 10 kts | 219° |
| 2026-05-08 16:07 | 55.36409 | -5.09394 | 173 ft | 10 kts | 215° |
| 2026-05-08 16:07 | 55.36348 | -5.09469 | 165 ft | 12 kts | 218° |
| 2026-05-08 16:07 | 55.36285 | -5.09540 | 164 ft | 10 kts | 218° |
| 2026-05-08 16:07 | 55.36216 | -5.09565 | 165 ft | 7 kts | 210° |
| 2026-05-08 16:08 | 55.36180 | -5.09624 | 166 ft | 8 kts | 212° |
| 2026-05-08 16:08 | 55.36153 | -5.09708 | 159 ft | 5 kts | 212° |
| 2026-05-08 16:08 | 55.36102 | -5.09763 | 144 ft | 11 kts | 215° |
| 2026-05-08 16:08 | 55.36024 | -5.09839 | 145 ft | 14 kts | 216° |
| 2026-05-08 16:09 | 55.35960 | -5.09896 | 141 ft | 4 kts | 216° |
| 2026-05-08 16:09 | 55.35941 | -5.09943 | 142 ft | 5 kts | 216° |
| 2026-05-08 16:09 | 55.35911 | -5.09996 | 141 ft | 10 kts | 217° |
| 2026-05-08 16:09 | 55.35830 | -5.10097 | 146 ft | 19 kts | 219° |
| 2026-05-08 16:10 | 55.35707 | -5.10215 | 125 ft | 15 kts | 232° |
| 2026-05-08 16:10 | 55.35627 | -5.10271 | 128 ft | 14 kts | 294° |
| 2026-05-08 16:10 | 55.35558 | -5.10348 | 127 ft | 6 kts | 289° |
| 2026-05-08 16:10 | 55.35549 | -5.10427 | 121 ft | 7 kts | 326° |
| 2026-05-08 16:11 | 55.35529 | -5.10497 | 120 ft | 5 kts | 322° |
| 2026-05-08 16:11 | 55.35491 | -5.10568 | 123 ft | 9 kts | 327° |
| 2026-05-08 16:11 | 55.35460 | -5.10629 | 118 ft | 10 kts | 340° |
| 2026-05-08 16:18 | 55.35450 | -5.10658 | 132 ft | 10 kts | 341° |
| 2026-05-08 16:18 | 55.35377 | -5.10869 | 128 ft | 35 kts | 208° |
| 2026-05-08 16:19 | 55.35067 | -5.11209 | 114 ft | 68 kts | 212° |
| 2026-05-08 16:19 | 55.34619 | -5.11609 | 305 ft | 73 kts | 213° |
| 2026-05-08 16:19 | 55.34393 | -5.12320 | 498 ft | 70 kts | 276° |
| 2026-05-08 16:19 | 55.34689 | -5.12986 | 500 ft | 77 kts | 341° |
| 2026-05-08 16:20 | 55.35217 | -5.12957 | 518 ft | 84 kts | 18° |
| 2026-05-08 16:20 | 55.35746 | -5.12381 | 377 ft | 114 kts | 34° |
| 2026-05-08 16:20 | 55.36245 | -5.11083 | 511 ft | 137 kts | 66° |
| 2026-05-08 16:20 | 55.36470 | -5.09436 | 539 ft | 141 kts | 77° |
| 2026-05-08 16:21 | 55.36647 | -5.07773 | 566 ft | 136 kts | 77° |
| 2026-05-08 16:21 | 55.36809 | -5.06169 | 526 ft | 132 kts | 77° |
| 2026-05-08 16:21 | 55.36965 | -5.04563 | 461 ft | 133 kts | 77° |
| 2026-05-08 16:21 | 55.37136 | -5.02977 | 451 ft | 134 kts | 77° |
| 2026-05-08 16:22 | 55.37306 | -5.01422 | 468 ft | 134 kts | 77° |
| 2026-05-08 16:22 | 55.37461 | -4.99884 | 484 ft | 133 kts | 77° |
| 2026-05-08 16:22 | 55.37610 | -4.98367 | 479 ft | 134 kts | 77° |
| 2026-05-08 16:22 | 55.37779 | -4.96710 | 486 ft | 133 kts | 77° |
| 2026-05-08 16:23 | 55.37936 | -4.95120 | 475 ft | 133 kts | 77° |
| 2026-05-08 16:23 | 55.38109 | -4.93582 | 406 ft | 121 kts | 76° |
| 2026-05-08 16:23 | 55.38359 | -4.92277 | 305 ft | 112 kts | 60° |
| 2026-05-08 16:23 | 55.38762 | -4.91345 | 341 ft | 85 kts | 35° |
| 2026-05-08 16:24 | 55.39205 | -4.90724 | 230 ft | 82 kts | 34° |
| 2026-05-08 16:24 | 55.39601 | -4.90062 | 230 ft | 82 kts | 45° |
| 2026-05-08 16:24 | 55.39939 | -4.89241 | 259 ft | 82 kts | 56° |
| 2026-05-08 16:24 | 55.40270 | -4.88415 | 267 ft | 83 kts | 47° |
| 2026-05-08 16:25 | 55.40631 | -4.87637 | 368 ft | 83 kts | 46° |
| 2026-05-08 16:25 | 55.41048 | -4.86875 | 369 ft | 87 kts | 35° |
| 2026-05-08 16:25 | 55.41517 | -4.86222 | 335 ft | 84 kts | 37° |
| 2026-05-08 16:25 | 55.41930 | -4.85568 | 189 ft | 77 kts | 52° |
| 2026-05-08 16:26 | 55.42218 | -4.84844 | 94 ft | 67 kts | 50° |
| 2026-05-08 16:26 | 55.42408 | -4.84499 | 111 ft | 20 kts | 58° |
| 2026-05-08 16:26 | 55.42495 | -4.84268 | 79 ft | 21 kts | 50° |
| 2026-05-08 16:26 | 55.42553 | -4.84139 | 73 ft | 15 kts | 46° |
| 2026-05-08 16:27 | 55.42653 | -4.83934 | 85 ft | 24 kts | 50° |
| 2026-05-08 16:27 | 55.42756 | -4.83717 | 65 ft | 21 kts | 43° |
| 2026-05-08 16:27 | 55.42849 | -4.83510 | 52 ft | 20 kts | 48° |
| 2026-05-08 16:27 | 55.42940 | -4.83325 | 44 ft | 20 kts | 49° |
| 2026-05-08 16:28 | 55.43020 | -4.83124 | 35 ft | 20 kts | 52° |
| 2026-05-08 16:28 | 55.43102 | -4.82941 | 24 ft | 20 kts | 45° |
| 2026-05-08 16:28 | 55.43189 | -4.82758 | 19 ft | 19 kts | 44° |
| 2026-05-08 16:28 | 55.43274 | -4.82576 | 19 ft | 19 kts | 44° |
| 2026-05-08 16:29 | 55.43361 | -4.82392 | 19 ft | 19 kts | 43° |
| 2026-05-08 16:29 | 55.43446 | -4.82212 | 20 ft | 19 kts | 40° |
| 2026-05-08 16:29 | 55.43531 | -4.82042 | 32 ft | 16 kts | 43° |
| 2026-05-08 16:29 | 55.43618 | -4.81907 | 84 ft | 19 kts | 46° |
| 2026-05-08 16:30 | 55.43833 | -4.81439 | 177 ft | 82 kts | 54° |
| 2026-05-08 16:30 | 55.44144 | -4.80450 | 438 ft | 94 kts | 63° |
| 2026-05-08 16:30 | 55.44369 | -4.79402 | 555 ft | 91 kts | 68° |
| 2026-05-08 16:30 | 55.44557 | -4.78352 | 505 ft | 90 kts | 68° |
| 2026-05-08 16:31 | 55.44779 | -4.77293 | 451 ft | 98 kts | 65° |
| 2026-05-08 16:31 | 55.45090 | -4.76006 | 479 ft | 133 kts | 63° |
| 2026-05-08 16:31 | 55.45536 | -4.74395 | 588 ft | 154 kts | 63° |
| 2026-05-08 16:31 | 55.46022 | -4.72704 | 553 ft | 156 kts | 63° |
| 2026-05-08 16:32 | 55.46462 | -4.71000 | 511 ft | 155 kts | 63° |
| 2026-05-08 16:32 | 55.46894 | -4.69273 | 463 ft | 156 kts | 63° |
| 2026-05-08 16:32 | 55.47363 | -4.67536 | 461 ft | 157 kts | 66° |
| 2026-05-08 16:32 | 55.47693 | -4.65716 | 481 ft | 156 kts | 77° |
| 2026-05-08 16:33 | 55.47910 | -4.63836 | 512 ft | 153 kts | 77° |
| 2026-05-08 16:33 | 55.48127 | -4.62133 | 525 ft | 128 kts | 84° |
| 2026-05-08 16:33 | 55.48273 | -4.60822 | 457 ft | 95 kts | 87° |
| 2026-05-08 16:33 | 55.48318 | -4.59742 | 349 ft | 85 kts | 82° |
| 2026-05-08 16:34 | 55.48479 | -4.58765 | 326 ft | 82 kts | 52° |
| 2026-05-08 16:34 | 55.48868 | -4.58052 | 283 ft | 80 kts | 31° |
| 2026-05-08 16:34 | 55.49353 | -4.57648 | 271 ft | 76 kts | 13° |
| 2026-05-08 16:34 | 55.49850 | -4.57382 | 235 ft | 70 kts | 9° |
| 2026-05-08 16:35 | 55.50253 | -4.57453 | 186 ft | 54 kts | 311° |
| 2026-05-08 16:35 | 55.50456 | -4.58030 | 145 ft | 58 kts | 291° |
| 2026-05-08 16:35 | 55.50675 | -4.58606 | 121 ft | 52 kts | 311° |
| 2026-05-08 16:35 | 55.50913 | -4.58458 | 73 ft | 31 kts | 66° |
| 2026-05-08 16:36 | 55.50961 | -4.58252 | 73 ft | 9 kts | 17° |
| 2026-05-08 16:36 | 55.50975 | -4.58231 | 70 ft | 1 kts | 251° |
| 2026-05-08 16:36 | 55.50975 | -4.58235 | 58 ft | 0 kts | 255° |
| 2026-05-08 16:36 | 55.50974 | -4.58235 | 57 ft | 0 kts | 255° |